Time,TemperatureF,DewpointF,PressureIn,WindDirection,WindDirectionDegrees,WindSpeedMPH,WindSpeedGustMPH,Humidity,HourlyPrecipIn,Conditions,Clouds,dailyrainin,SolarRadiationWatts/m^2,SoftwareType,DateUTC
2013-04-17 00:02:00,23.0,14.0,-100.00,NE,55,5.0,6.0,68,0.00,,,0.00,0.000000,,2013-04-17 06:02:00,
2013-04-17 00:32:00,22.0,12.0,-100.00,NE,55,6.0,8.0,65,0.00,,,0.00,0.000000,,2013-04-17 06:32:00,
2013-04-17 00:42:00,22.0,12.0,-100.00,NE,55,6.0,8.0,65,0.00,,,0.00,0.000000,,2013-04-17 06:42:00,
2013-04-17 00:52:00,22.0,12.0,-100.00,NE,55,6.0,8.0,65,0.00,,,0.00,0.000000,,2013-04-17 06:52:00,
2013-04-17 01:02:00,22.0,12.0,-100.00,NE,55,6.0,8.0,65,0.00,,,0.00,0.000000,,2013-04-17 07:02:00,
2013-04-17 01:11:00,22.0,12.0,-100.00,NE,55,6.0,8.0,65,0.00,,,0.00,0.000000,,2013-04-17 07:11:00,
2013-04-17 01:42:00,19.0,9.0,-100.00,NE,40,6.0,8.0,65,0.00,,,0.00,0.000000,,2013-04-17 07:42:00,
2013-04-17 01:52:00,19.0,9.0,-100.00,NE,40,6.0,8.0,65,0.00,,,0.00,0.000000,,2013-04-17 07:52:00,
2013-04-17 02:42:00,20.0,12.0,-100.00,NNE,17,7.0,9.0,70,0.00,,,0.00,0.000000,,2013-04-17 08:42:00,
2013-04-17 02:52:00,20.0,12.0,-100.00,NNE,17,7.0,9.0,70,0.00,,,0.00,0.000000,,2013-04-17 08:52:00,
2013-04-17 03:02:00,20.0,12.0,-100.00,NNE,17,7.0,9.0,70,0.00,,,0.00,0.000000,,2013-04-17 09:02:00,
2013-04-17 03:12:00,20.0,12.0,-100.00,NNE,17,7.0,9.0,70,0.00,,,0.00,0.000000,,2013-04-17 09:12:00,
2013-04-17 03:33:00,17.0,8.0,-100.00,NE,42,3.0,8.0,68,0.00,,,0.00,0.000000,,2013-04-17 09:33:00,
2013-04-17 03:42:00,17.0,8.0,-100.00,NE,42,3.0,8.0,68,0.00,,,0.00,0.000000,,2013-04-17 09:42:00,
2013-04-17 03:52:00,17.0,8.0,-100.00,NE,42,3.0,8.0,68,0.00,,,0.00,0.000000,,2013-04-17 09:52:00,
2013-04-17 04:02:00,17.0,8.0,-100.00,NE,42,3.0,8.0,68,0.00,,,0.00,0.000000,,2013-04-17 10:02:00,
2013-04-17 04:12:00,17.0,8.0,-100.00,NE,42,3.0,8.0,68,0.00,,,0.00,0.000000,,2013-04-17 10:12:00,
2013-04-17 04:33:00,17.0,8.0,-100.00,NNW,342,2.0,7.0,66,0.00,,,0.00,0.000000,,2013-04-17 10:33:00,
2013-04-17 04:43:00,17.0,8.0,-100.00,NNW,342,2.0,7.0,66,0.00,,,0.00,0.000000,,2013-04-17 10:43:00,
2013-04-17 04:52:00,17.0,8.0,-100.00,NNW,342,2.0,7.0,66,0.00,,,0.00,0.000000,,2013-04-17 10:52:00,
2013-04-17 05:02:00,17.0,8.0,-100.00,NNW,342,2.0,7.0,66,0.00,,,0.00,0.000000,,2013-04-17 11:02:00,
2013-04-17 05:11:00,17.0,8.0,-100.00,NNW,342,2.0,7.0,66,0.00,,,0.00,0.000000,,2013-04-17 11:11:00,
2013-04-17 05:32:00,14.0,8.0,-100.00,NE,42,6.0,6.0,76,0.00,,,0.00,0.000000,,2013-04-17 11:32:00,
2013-04-17 05:42:00,14.0,8.0,-100.00,NE,42,6.0,6.0,76,0.00,,,0.00,0.000000,,2013-04-17 11:42:00,
2013-04-17 05:52:00,14.0,8.0,-100.00,NE,42,6.0,6.0,76,0.00,,,0.00,0.000000,,2013-04-17 11:52:00,
2013-04-17 06:02:00,14.0,8.0,-100.00,NE,42,6.0,6.0,76,0.00,,,0.00,0.000000,,2013-04-17 12:02:00,
2013-04-17 06:12:00,14.0,8.0,-100.00,NE,42,6.0,6.0,76,0.00,,,0.00,0.000000,,2013-04-17 12:12:00,
2013-04-17 06:32:00,14.0,8.0,-100.00,NNE,28,2.0,6.0,76,0.00,,,0.00,0.000000,,2013-04-17 12:32:00,
2013-04-17 06:42:00,14.0,8.0,-100.00,NNE,28,2.0,6.0,76,0.00,,,0.00,0.000000,,2013-04-17 12:42:00,
2013-04-17 06:52:00,14.0,8.0,-100.00,NNE,28,2.0,6.0,76,0.00,,,0.00,0.000000,,2013-04-17 12:52:00,
2013-04-17 07:02:00,14.0,8.0,-100.00,NNE,28,2.0,6.0,76,0.00,,,0.00,0.000000,,2013-04-17 13:02:00,
2013-04-17 07:12:00,14.0,8.0,-100.00,NNE,28,2.0,6.0,76,0.00,,,0.00,0.000000,,2013-04-17 13:12:00,
2013-04-17 07:32:00,16.0,11.0,-100.00,SE,136,3.0,5.0,80,0.00,,,0.00,7.000000,,2013-04-17 13:32:00,
2013-04-17 07:42:00,16.0,11.0,-100.00,SE,136,3.0,5.0,80,0.00,,,0.00,7.000000,,2013-04-17 13:42:00,
2013-04-17 07:52:00,16.0,11.0,-100.00,SE,136,3.0,5.0,80,0.00,,,0.00,7.000000,,2013-04-17 13:52:00,
2013-04-17 08:02:00,16.0,11.0,-100.00,SE,136,3.0,5.0,80,0.00,,,0.00,7.000000,,2013-04-17 14:02:00,
2013-04-17 08:11:00,16.0,11.0,-100.00,SE,136,3.0,5.0,80,0.00,,,0.00,7.000000,,2013-04-17 14:11:00,
2013-04-17 08:32:00,26.0,15.0,-100.00,East,93,1.0,4.0,62,0.00,,,0.00,49.000000,,2013-04-17 14:32:00,
2013-04-17 08:52:00,26.0,15.0,-100.00,East,93,1.0,4.0,62,0.00,,,0.00,49.000000,,2013-04-17 14:52:00,
2013-04-17 09:02:00,26.0,15.0,-100.00,East,93,1.0,4.0,62,0.00,,,0.00,49.000000,,2013-04-17 15:02:00,
2013-04-17 09:11:00,26.0,15.0,-100.00,East,93,1.0,4.0,62,0.00,,,0.00,49.000000,,2013-04-17 15:11:00,
2013-04-17 09:33:00,31.0,14.0,-100.00,NNW,347,3.0,5.0,48,0.00,,,0.00,277.000000,,2013-04-17 15:33:00,
2013-04-17 10:03:00,31.0,14.0,-100.00,NNW,347,3.0,5.0,48,0.00,,,0.00,277.000000,,2013-04-17 16:03:00,
2013-04-17 10:12:00,31.0,14.0,-100.00,NNW,347,3.0,5.0,48,0.00,,,0.00,277.000000,,2013-04-17 16:12:00,
2013-04-17 10:32:00,37.0,14.0,-100.00,SE,141,3.0,7.0,38,0.00,,,0.00,531.000000,,2013-04-17 16:32:00,
2013-04-17 11:12:00,37.0,14.0,-100.00,SE,141,3.0,7.0,38,0.00,,,0.00,531.000000,,2013-04-17 17:12:00,
2013-04-17 11:33:00,40.0,11.0,-100.00,SE,142,3.0,6.0,30,0.00,,,0.00,751.000000,,2013-04-17 17:33:00,
2013-04-17 12:02:00,40.0,11.0,-100.00,SE,142,3.0,6.0,30,0.00,,,0.00,751.000000,,2013-04-17 18:02:00,
2013-04-17 12:12:00,40.0,11.0,-100.00,SE,142,3.0,6.0,30,0.00,,,0.00,751.000000,,2013-04-17 18:12:00,
2013-04-17 12:42:00,42.0,8.0,-100.00,NE,47,3.0,10.0,24,0.00,,,0.00,916.000000,,2013-04-17 18:42:00,
2013-04-17 12:52:00,42.0,8.0,-100.00,NE,47,3.0,10.0,24,0.00,,,0.00,916.000000,,2013-04-17 18:52:00,
2013-04-17 13:02:00,42.0,8.0,-100.00,NE,47,3.0,10.0,24,0.00,,,0.00,916.000000,,2013-04-17 19:02:00,
2013-04-17 13:12:00,42.0,8.0,-100.00,NE,47,3.0,10.0,24,0.00,,,0.00,916.000000,,2013-04-17 19:12:00,
2013-04-17 13:42:00,44.0,10.0,-100.00,NW,320,3.0,10.0,25,0.00,,,0.00,1022.000000,,2013-04-17 19:42:00,
2013-04-17 13:52:00,44.0,10.0,-100.00,NW,320,3.0,10.0,25,0.00,,,0.00,1022.000000,,2013-04-17 19:52:00,
2013-04-17 14:02:00,44.0,10.0,-100.00,NW,320,3.0,10.0,25,0.00,,,0.00,1022.000000,,2013-04-17 20:02:00,
2013-04-17 14:12:00,44.0,10.0,-100.00,NW,320,3.0,10.0,25,0.00,,,0.00,1022.000000,,2013-04-17 20:12:00,
2013-04-17 14:33:00,45.0,10.0,-100.00,WNW,303,4.0,11.0,24,0.00,,,0.00,1066.000000,,2013-04-17 20:33:00,
2013-04-17 14:42:00,45.0,10.0,-100.00,WNW,303,4.0,11.0,24,0.00,,,0.00,1066.000000,,2013-04-17 20:42:00,
2013-04-17 14:52:00,45.0,10.0,-100.00,WNW,303,4.0,11.0,24,0.00,,,0.00,1066.000000,,2013-04-17 20:52:00,
2013-04-17 15:02:00,45.0,10.0,-100.00,WNW,303,4.0,11.0,24,0.00,,,0.00,1066.000000,,2013-04-17 21:02:00,
2013-04-17 15:12:00,45.0,10.0,-100.00,WNW,303,4.0,11.0,24,0.00,,,0.00,1066.000000,,2013-04-17 21:12:00,
2013-04-17 15:43:00,46.0,9.0,-100.00,NNE,31,6.0,13.0,22,0.00,,,0.00,1046.000000,,2013-04-17 21:43:00,
2013-04-17 15:53:00,46.0,9.0,-100.00,NNE,31,6.0,13.0,22,0.00,,,0.00,1046.000000,,2013-04-17 21:53:00,
2013-04-17 16:02:00,46.0,9.0,-100.00,NNE,31,6.0,13.0,22,0.00,,,0.00,1046.000000,,2013-04-17 22:02:00,
2013-04-17 16:12:00,46.0,9.0,-100.00,NNE,31,6.0,13.0,22,0.00,,,0.00,1046.000000,,2013-04-17 22:12:00,
2013-04-17 16:43:00,50.0,12.0,-100.00,SSW,209,4.0,11.0,21,0.00,,,0.00,964.000000,,2013-04-17 22:43:00,
2013-04-17 16:53:00,50.0,12.0,-100.00,SSW,209,4.0,11.0,21,0.00,,,0.00,964.000000,,2013-04-17 22:53:00,
2013-04-17 17:02:00,50.0,12.0,-100.00,SSW,209,4.0,11.0,21,0.00,,,0.00,964.000000,,2013-04-17 23:02:00,
2013-04-17 17:12:00,50.0,12.0,-100.00,SSW,209,4.0,11.0,21,0.00,,,0.00,964.000000,,2013-04-17 23:12:00,
2013-04-17 17:32:00,51.0,12.0,-100.00,WSW,252,2.0,12.0,21,0.00,,,0.00,805.000000,,2013-04-17 23:32:00,
2013-04-17 17:42:00,51.0,12.0,-100.00,WSW,252,2.0,12.0,21,0.00,,,0.00,805.000000,,2013-04-17 23:42:00,
2013-04-17 17:52:00,51.0,12.0,-100.00,WSW,252,2.0,12.0,21,0.00,,,0.00,805.000000,,2013-04-17 23:52:00,
2013-04-17 18:02:00,51.0,12.0,-100.00,WSW,252,2.0,12.0,21,0.00,,,0.00,805.000000,,2013-04-18 00:02:00,
2013-04-17 18:12:00,51.0,12.0,-100.00,WSW,252,2.0,12.0,21,0.00,,,0.00,805.000000,,2013-04-18 00:12:00,
2013-04-17 19:32:00,47.0,8.0,-100.00,NW,312,2.0,6.0,20,-99.99,,,0.00,274.000000,,2013-04-18 01:32:00,
2013-04-17 19:42:00,47.0,8.0,-100.00,NW,312,2.0,6.0,20,-99.99,,,0.00,274.000000,,2013-04-18 01:42:00,
2013-04-17 19:52:00,47.0,8.0,-100.00,NW,312,2.0,6.0,20,-99.99,,,0.00,274.000000,,2013-04-18 01:52:00,
2013-04-17 20:02:00,47.0,8.0,-100.00,NW,312,2.0,6.0,20,-99.99,,,0.00,274.000000,,2013-04-18 02:02:00,
2013-04-17 20:12:00,47.0,8.0,-100.00,NW,312,2.0,6.0,20,-99.99,,,0.00,274.000000,,2013-04-18 02:12:00,
2013-04-17 20:32:00,39.0,14.0,-100.00,WNW,293,3.0,5.0,35,0.00,,,0.00,79.000000,,2013-04-18 02:32:00,
2013-04-17 20:42:00,39.0,14.0,-100.00,WNW,293,3.0,5.0,35,0.00,,,0.00,79.000000,,2013-04-18 02:42:00,
2013-04-17 20:52:00,39.0,14.0,-100.00,WNW,293,3.0,5.0,35,0.00,,,0.00,79.000000,,2013-04-18 02:52:00,
2013-04-17 21:02:00,39.0,14.0,-100.00,WNW,293,3.0,5.0,35,0.00,,,0.00,79.000000,,2013-04-18 03:02:00,
2013-04-17 21:12:00,39.0,14.0,-100.00,WNW,293,3.0,5.0,35,0.00,,,0.00,79.000000,,2013-04-18 03:12:00,
2013-04-17 21:33:00,33.0,11.0,-100.00,East,81,4.0,8.0,39,0.00,,,0.00,3.000000,,2013-04-18 03:33:00,
2013-04-17 21:53:00,33.0,11.0,-100.00,East,81,4.0,8.0,39,0.00,,,0.00,3.000000,,2013-04-18 03:53:00,
2013-04-17 22:03:00,33.0,11.0,-100.00,East,81,4.0,8.0,39,0.00,,,0.00,3.000000,,2013-04-18 04:03:00,
2013-04-17 22:13:00,33.0,11.0,-100.00,East,81,4.0,8.0,39,0.00,,,0.00,3.000000,,2013-04-18 04:13:00,
2013-04-17 22:43:00,29.0,14.0,-100.00,ESE,120,4.0,6.0,54,0.00,,,0.00,0.000000,,2013-04-18 04:43:00,
2013-04-17 22:53:00,29.0,14.0,-100.00,ESE,120,4.0,6.0,54,0.00,,,0.00,0.000000,,2013-04-18 04:53:00,
2013-04-17 23:02:00,29.0,14.0,-100.00,ESE,120,4.0,6.0,54,0.00,,,0.00,0.000000,,2013-04-18 05:02:00,
2013-04-17 23:12:00,29.0,14.0,-100.00,ESE,120,4.0,6.0,54,0.00,,,0.00,0.000000,,2013-04-18 05:12:00,
2013-04-17 23:33:00,28.0,18.0,-100.00,South,183,2.0,7.0,65,0.00,,,0.00,0.000000,,2013-04-18 05:33:00,
2013-04-17 23:42:00,28.0,18.0,-100.00,South,183,2.0,7.0,65,0.00,,,0.00,0.000000,,2013-04-18 05:42:00,
2013-04-17 23:52:00,28.0,18.0,-100.00,South,183,2.0,7.0,65,0.00,,,0.00,0.000000,,2013-04-18 05:52:00,